sensor_id;sensor_type;location;lat;lon;timestamp;temperature;humidity
9984;DHT22;16737;50.932;6.780;2023-12-07T00:01:07;6.10;99.90
9984;DHT22;16737;50.932;6.780;2023-12-07T00:03:34;6.10;99.90
9984;DHT22;16737;50.932;6.780;2023-12-07T00:06:01;6.10;99.90
9984;DHT22;16737;50.932;6.780;2023-12-07T00:08:28;6.10;99.90
9984;DHT22;16737;50.932;6.780;2023-12-07T00:10:58;6.10;99.90
9984;DHT22;16737;50.932;6.780;2023-12-07T00:13:25;6.10;99.90
9984;DHT22;16737;50.932;6.780;2023-12-07T00:15:52;6.10;99.90
9984;DHT22;16737;50.932;6.780;2023-12-07T00:18:19;6.10;99.90
9984;DHT22;16737;50.932;6.780;2023-12-07T00:20:46;6.10;99.90
9984;DHT22;16737;50.932;6.780;2023-12-07T00:23:13;6.10;99.90
9984;DHT22;16737;50.932;6.780;2023-12-07T00:25:40;6.10;99.90
9984;DHT22;16737;50.932;6.780;2023-12-07T00:28:08;6.10;99.90
9984;DHT22;16737;50.932;6.780;2023-12-07T00:30:35;6.10;99.90
9984;DHT22;16737;50.932;6.780;2023-12-07T00:33:02;6.10;99.90
9984;DHT22;16737;50.932;6.780;2023-12-07T00:35:29;6.10;99.90
9984;DHT22;16737;50.932;6.780;2023-12-07T00:37:56;6.10;99.90
9984;DHT22;16737;50.932;6.780;2023-12-07T00:40:23;6.20;99.90
9984;DHT22;16737;50.932;6.780;2023-12-07T00:42:50;6.20;99.90
9984;DHT22;16737;50.932;6.780;2023-12-07T00:45:19;6.20;99.90
9984;DHT22;16737;50.932;6.780;2023-12-07T00:47:46;6.20;99.90
9984;DHT22;16737;50.932;6.780;2023-12-07T00:50:13;6.20;99.90
9984;DHT22;16737;50.932;6.780;2023-12-07T00:52:41;6.20;99.90
9984;DHT22;16737;50.932;6.780;2023-12-07T00:55:08;6.20;99.90
9984;DHT22;16737;50.932;6.780;2023-12-07T00:57:35;6.20;99.90
9984;DHT22;16737;50.932;6.780;2023-12-07T01:00:03;6.20;99.90
9984;DHT22;16737;50.932;6.780;2023-12-07T01:02:33;6.20;99.90
9984;DHT22;16737;50.932;6.780;2023-12-07T01:05:01;6.20;99.90
9984;DHT22;16737;50.932;6.780;2023-12-07T01:07:28;6.20;99.90
9984;DHT22;16737;50.932;6.780;2023-12-07T01:09:55;6.20;99.90
9984;DHT22;16737;50.932;6.780;2023-12-07T01:12:22;6.20;99.90
9984;DHT22;16737;50.932;6.780;2023-12-07T01:14:49;6.20;99.90
9984;DHT22;16737;50.932;6.780;2023-12-07T01:17:16;6.20;99.90
9984;DHT22;16737;50.932;6.780;2023-12-07T01:19:44;6.20;99.90
9984;DHT22;16737;50.932;6.780;2023-12-07T01:22:11;6.20;99.90
9984;DHT22;16737;50.932;6.780;2023-12-07T01:24:38;6.20;99.90
9984;DHT22;16737;50.932;6.780;2023-12-07T01:27:05;6.20;99.90
9984;DHT22;16737;50.932;6.780;2023-12-07T01:29:33;6.20;99.90
9984;DHT22;16737;50.932;6.780;2023-12-07T01:32:00;6.20;99.90
9984;DHT22;16737;50.932;6.780;2023-12-07T01:34:27;6.20;99.90
9984;DHT22;16737;50.932;6.780;2023-12-07T01:36:55;6.20;99.90
9984;DHT22;16737;50.932;6.780;2023-12-07T01:39:22;6.20;99.90
9984;DHT22;16737;50.932;6.780;2023-12-07T01:41:49;6.20;99.90
9984;DHT22;16737;50.932;6.780;2023-12-07T01:44:17;6.20;99.90
9984;DHT22;16737;50.932;6.780;2023-12-07T01:46:45;6.20;99.90
9984;DHT22;16737;50.932;6.780;2023-12-07T01:49:13;6.20;99.90
9984;DHT22;16737;50.932;6.780;2023-12-07T01:51:41;6.10;99.90
9984;DHT22;16737;50.932;6.780;2023-12-07T01:54:10;6.10;99.90
9984;DHT22;16737;50.932;6.780;2023-12-07T01:56:37;6.10;99.90
9984;DHT22;16737;50.932;6.780;2023-12-07T01:59:04;6.10;99.90
9984;DHT22;16737;50.932;6.780;2023-12-07T02:01:31;6.10;99.90
9984;DHT22;16737;50.932;6.780;2023-12-07T02:03:59;6.10;99.90
9984;DHT22;16737;50.932;6.780;2023-12-07T02:06:26;6.10;99.90
9984;DHT22;16737;50.932;6.780;2023-12-07T02:08:54;6.10;99.90
9984;DHT22;16737;50.932;6.780;2023-12-07T02:11:22;6.10;99.90
9984;DHT22;16737;50.932;6.780;2023-12-07T02:13:49;6.10;99.90
9984;DHT22;16737;50.932;6.780;2023-12-07T02:16:26;6.00;99.90
9984;DHT22;16737;50.932;6.780;2023-12-07T02:19:03;6.00;99.90
9984;DHT22;16737;50.932;6.780;2023-12-07T02:21:48;6.00;99.90
9984;DHT22;16737;50.932;6.780;2023-12-07T02:24:21;6.00;99.90
9984;DHT22;16737;50.932;6.780;2023-12-07T02:26:53;6.00;99.80
9984;DHT22;16737;50.932;6.780;2023-12-07T02:29:20;5.90;99.70
9984;DHT22;16737;50.932;6.780;2023-12-07T02:31:48;5.90;99.70
9984;DHT22;16737;50.932;6.780;2023-12-07T02:34:15;5.90;99.70
9984;DHT22;16737;50.932;6.780;2023-12-07T02:36:43;5.80;99.70
9984;DHT22;16737;50.932;6.780;2023-12-07T02:39:12;5.80;99.70
9984;DHT22;16737;50.932;6.780;2023-12-07T02:41:40;5.80;99.70
9984;DHT22;16737;50.932;6.780;2023-12-07T02:44:10;5.70;99.60
9984;DHT22;16737;50.932;6.780;2023-12-07T02:46:37;5.70;99.60
9984;DHT22;16737;50.932;6.780;2023-12-07T02:49:05;5.70;99.60
9984;DHT22;16737;50.932;6.780;2023-12-07T02:51:32;5.60;99.50
9984;DHT22;16737;50.932;6.780;2023-12-07T02:53:59;5.60;99.60
9984;DHT22;16737;50.932;6.780;2023-12-07T02:56:26;5.60;99.60
9984;DHT22;16737;50.932;6.780;2023-12-07T02:58:53;5.50;99.50
9984;DHT22;16737;50.932;6.780;2023-12-07T03:01:21;5.50;99.50
9984;DHT22;16737;50.932;6.780;2023-12-07T03:03:49;5.50;99.50
9984;DHT22;16737;50.932;6.780;2023-12-07T03:06:16;5.50;99.60
9984;DHT22;16737;50.932;6.780;2023-12-07T03:08:45;5.40;99.50
9984;DHT22;16737;50.932;6.780;2023-12-07T03:11:12;5.40;99.50
9984;DHT22;16737;50.932;6.780;2023-12-07T03:13:39;5.40;99.40
9984;DHT22;16737;50.932;6.780;2023-12-07T03:16:07;5.30;99.40
9984;DHT22;16737;50.932;6.780;2023-12-07T03:18:37;5.30;99.30
9984;DHT22;16737;50.932;6.780;2023-12-07T03:21:04;5.30;99.30
9984;DHT22;16737;50.932;6.780;2023-12-07T03:23:32;5.20;99.20
9984;DHT22;16737;50.932;6.780;2023-12-07T03:25:58;5.20;99.20
9984;DHT22;16737;50.932;6.780;2023-12-07T03:28:25;5.10;99.20
9984;DHT22;16737;50.932;6.780;2023-12-07T03:30:51;5.10;99.20
9984;DHT22;16737;50.932;6.780;2023-12-07T03:33:18;5.10;99.20
9984;DHT22;16737;50.932;6.780;2023-12-07T03:35:47;5.00;99.10
9984;DHT22;16737;50.932;6.780;2023-12-07T03:38:14;5.00;99.20
9984;DHT22;16737;50.932;6.780;2023-12-07T03:40:42;5.00;99.20
9984;DHT22;16737;50.932;6.780;2023-12-07T03:43:13;4.90;99.20
9984;DHT22;16737;50.932;6.780;2023-12-07T03:45:40;4.90;99.20
9984;DHT22;16737;50.932;6.780;2023-12-07T03:48:07;4.90;99.20
9984;DHT22;16737;50.932;6.780;2023-12-07T03:50:34;4.90;99.20
9984;DHT22;16737;50.932;6.780;2023-12-07T03:53:02;4.80;99.10
9984;DHT22;16737;50.932;6.780;2023-12-07T03:55:29;4.80;99.10
9984;DHT22;16737;50.932;6.780;2023-12-07T03:57:56;4.80;99.20
9984;DHT22;16737;50.932;6.780;2023-12-07T04:00:24;4.70;99.10
9984;DHT22;16737;50.932;6.780;2023-12-07T04:02:51;4.70;99.10
9984;DHT22;16737;50.932;6.780;2023-12-07T04:05:18;4.60;99.10
9984;DHT22;16737;50.932;6.780;2023-12-07T04:07:45;4.60;99.10
9984;DHT22;16737;50.932;6.780;2023-12-07T04:10:13;4.50;99.10
9984;DHT22;16737;50.932;6.780;2023-12-07T04:12:40;4.50;99.10
9984;DHT22;16737;50.932;6.780;2023-12-07T04:15:08;4.50;99.10
9984;DHT22;16737;50.932;6.780;2023-12-07T04:17:36;4.50;99.10
9984;DHT22;16737;50.932;6.780;2023-12-07T04:20:04;4.50;99.20
9984;DHT22;16737;50.932;6.780;2023-12-07T04:22:32;4.40;99.10
9984;DHT22;16737;50.932;6.780;2023-12-07T04:25:00;4.40;99.10
9984;DHT22;16737;50.932;6.780;2023-12-07T04:27:28;4.40;99.20
9984;DHT22;16737;50.932;6.780;2023-12-07T04:29:55;4.40;99.20
9984;DHT22;16737;50.932;6.780;2023-12-07T04:32:23;4.40;99.20
9984;DHT22;16737;50.932;6.780;2023-12-07T04:34:51;4.40;99.30
9984;DHT22;16737;50.932;6.780;2023-12-07T04:37:18;4.30;99.30
9984;DHT22;16737;50.932;6.780;2023-12-07T04:39:45;4.40;99.30
9984;DHT22;16737;50.932;6.780;2023-12-07T04:42:12;4.30;99.30
9984;DHT22;16737;50.932;6.780;2023-12-07T04:44:40;4.30;99.30
9984;DHT22;16737;50.932;6.780;2023-12-07T04:47:07;4.30;99.40
9984;DHT22;16737;50.932;6.780;2023-12-07T04:49:34;4.30;99.50
9984;DHT22;16737;50.932;6.780;2023-12-07T04:52:01;4.30;99.50
9984;DHT22;16737;50.932;6.780;2023-12-07T04:54:28;4.30;99.60
9984;DHT22;16737;50.932;6.780;2023-12-07T04:56:55;4.30;99.60
9984;DHT22;16737;50.932;6.780;2023-12-07T04:59:22;4.30;99.60
9984;DHT22;16737;50.932;6.780;2023-12-07T05:01:50;4.40;99.60
9984;DHT22;16737;50.932;6.780;2023-12-07T05:04:17;4.30;99.60
9984;DHT22;16737;50.932;6.780;2023-12-07T05:06:44;4.30;99.50
9984;DHT22;16737;50.932;6.780;2023-12-07T05:09:11;4.30;99.60
9984;DHT22;16737;50.932;6.780;2023-12-07T05:11:39;4.30;99.70
9984;DHT22;16737;50.932;6.780;2023-12-07T05:14:06;4.40;99.60
9984;DHT22;16737;50.932;6.780;2023-12-07T05:16:33;4.40;99.70
9984;DHT22;16737;50.932;6.780;2023-12-07T05:19:03;4.40;99.70
9984;DHT22;16737;50.932;6.780;2023-12-07T05:21:31;4.40;99.80
9984;DHT22;16737;50.932;6.780;2023-12-07T05:23:58;4.40;99.80
9984;DHT22;16737;50.932;6.780;2023-12-07T05:26:25;4.40;99.80
9984;DHT22;16737;50.932;6.780;2023-12-07T05:28:51;4.40;99.80
9984;DHT22;16737;50.932;6.780;2023-12-07T05:31:19;4.50;99.90
9984;DHT22;16737;50.932;6.780;2023-12-07T05:33:46;4.50;99.80
9984;DHT22;16737;50.932;6.780;2023-12-07T05:36:14;4.50;99.80
9984;DHT22;16737;50.932;6.780;2023-12-07T05:38:41;4.50;99.70
9984;DHT22;16737;50.932;6.780;2023-12-07T05:41:09;4.50;99.60
9984;DHT22;16737;50.932;6.780;2023-12-07T05:43:40;4.50;99.60
9984;DHT22;16737;50.932;6.780;2023-12-07T05:46:07;4.50;99.60
9984;DHT22;16737;50.932;6.780;2023-12-07T05:48:34;4.50;99.70
9984;DHT22;16737;50.932;6.780;2023-12-07T05:51:02;4.50;99.70
9984;DHT22;16737;50.932;6.780;2023-12-07T05:53:30;4.50;99.80
9984;DHT22;16737;50.932;6.780;2023-12-07T05:55:58;4.50;99.90
9984;DHT22;16737;50.932;6.780;2023-12-07T05:58:25;4.50;99.80
9984;DHT22;16737;50.932;6.780;2023-12-07T06:00:53;4.50;99.80
9984;DHT22;16737;50.932;6.780;2023-12-07T06:03:20;4.50;99.80
9984;DHT22;16737;50.932;6.780;2023-12-07T06:05:47;4.50;99.90
9984;DHT22;16737;50.932;6.780;2023-12-07T06:08:14;4.50;99.90
9984;DHT22;16737;50.932;6.780;2023-12-07T06:10:43;4.50;99.90
9984;DHT22;16737;50.932;6.780;2023-12-07T06:13:10;4.50;99.80
9984;DHT22;16737;50.932;6.780;2023-12-07T06:15:37;4.50;99.80
9984;DHT22;16737;50.932;6.780;2023-12-07T06:18:04;4.50;99.80
9984;DHT22;16737;50.932;6.780;2023-12-07T06:20:31;4.50;99.80
9984;DHT22;16737;50.932;6.780;2023-12-07T06:22:59;4.50;99.70
9984;DHT22;16737;50.932;6.780;2023-12-07T06:25:26;4.50;99.70
9984;DHT22;16737;50.932;6.780;2023-12-07T06:27:54;4.50;99.80
9984;DHT22;16737;50.932;6.780;2023-12-07T06:30:22;4.50;99.70
9984;DHT22;16737;50.932;6.780;2023-12-07T06:32:50;4.50;99.70
9984;DHT22;16737;50.932;6.780;2023-12-07T06:35:17;4.50;99.70
9984;DHT22;16737;50.932;6.780;2023-12-07T06:37:44;4.50;99.70
9984;DHT22;16737;50.932;6.780;2023-12-07T06:40:12;4.50;99.70
9984;DHT22;16737;50.932;6.780;2023-12-07T06:42:39;4.40;99.70
9984;DHT22;16737;50.932;6.780;2023-12-07T06:45:08;4.50;99.80
9984;DHT22;16737;50.932;6.780;2023-12-07T06:47:37;4.40;99.70
9984;DHT22;16737;50.932;6.780;2023-12-07T06:50:06;4.40;99.70
9984;DHT22;16737;50.932;6.780;2023-12-07T06:52:35;4.40;99.70
9984;DHT22;16737;50.932;6.780;2023-12-07T06:55:02;4.50;99.70
9984;DHT22;16737;50.932;6.780;2023-12-07T06:57:30;4.40;99.70
9984;DHT22;16737;50.932;6.780;2023-12-07T06:59:57;4.40;99.60
9984;DHT22;16737;50.932;6.780;2023-12-07T07:02:25;4.40;99.60
9984;DHT22;16737;50.932;6.780;2023-12-07T07:04:52;4.40;99.60
9984;DHT22;16737;50.932;6.780;2023-12-07T07:07:19;4.40;99.60
9984;DHT22;16737;50.932;6.780;2023-12-07T07:09:46;4.40;99.90
9984;DHT22;16737;50.932;6.780;2023-12-07T07:12:13;4.40;99.50
9984;DHT22;16737;50.932;6.780;2023-12-07T07:14:42;4.40;99.50
9984;DHT22;16737;50.932;6.780;2023-12-07T07:17:09;4.40;99.50
9984;DHT22;16737;50.932;6.780;2023-12-07T07:19:38;4.40;99.50
9984;DHT22;16737;50.932;6.780;2023-12-07T07:22:05;4.40;99.50
9984;DHT22;16737;50.932;6.780;2023-12-07T07:24:32;4.40;99.50
9984;DHT22;16737;50.932;6.780;2023-12-07T07:26:59;4.30;99.40
9984;DHT22;16737;50.932;6.780;2023-12-07T07:29:26;4.30;99.40
9984;DHT22;16737;50.932;6.780;2023-12-07T07:31:53;4.30;99.40
9984;DHT22;16737;50.932;6.780;2023-12-07T07:34:21;4.30;99.40
9984;DHT22;16737;50.932;6.780;2023-12-07T07:36:49;4.30;99.40
9984;DHT22;16737;50.932;6.780;2023-12-07T07:39:17;4.30;99.40
9984;DHT22;16737;50.932;6.780;2023-12-07T07:41:45;4.20;99.40
9984;DHT22;16737;50.932;6.780;2023-12-07T07:44:12;4.30;99.40
9984;DHT22;16737;50.932;6.780;2023-12-07T07:46:40;4.20;99.40
9984;DHT22;16737;50.932;6.780;2023-12-07T07:49:07;4.20;99.40
9984;DHT22;16737;50.932;6.780;2023-12-07T07:51:34;4.20;99.40
9984;DHT22;16737;50.932;6.780;2023-12-07T07:54:03;4.20;99.50
9984;DHT22;16737;50.932;6.780;2023-12-07T07:56:30;4.20;99.50
9984;DHT22;16737;50.932;6.780;2023-12-07T07:58:57;4.20;99.50
9984;DHT22;16737;50.932;6.780;2023-12-07T08:01:26;4.20;99.60
9984;DHT22;16737;50.932;6.780;2023-12-07T08:03:53;4.20;99.60
9984;DHT22;16737;50.932;6.780;2023-12-07T08:06:21;4.30;99.60
9984;DHT22;16737;50.932;6.780;2023-12-07T08:08:48;4.30;99.60
9984;DHT22;16737;50.932;6.780;2023-12-07T08:11:18;4.30;99.60
9984;DHT22;16737;50.932;6.780;2023-12-07T08:13:45;4.30;99.60
9984;DHT22;16737;50.932;6.780;2023-12-07T08:16:12;4.30;99.60
9984;DHT22;16737;50.932;6.780;2023-12-07T08:18:39;4.30;99.60
9984;DHT22;16737;50.932;6.780;2023-12-07T08:21:06;4.30;99.70
9984;DHT22;16737;50.932;6.780;2023-12-07T08:23:34;4.40;99.80
9984;DHT22;16737;50.932;6.780;2023-12-07T08:26:01;4.40;99.80
9984;DHT22;16737;50.932;6.780;2023-12-07T08:28:30;4.40;99.80
9984;DHT22;16737;50.932;6.780;2023-12-07T08:30:56;4.50;99.90
9984;DHT22;16737;50.932;6.780;2023-12-07T08:33:24;4.50;99.90
9984;DHT22;16737;50.932;6.780;2023-12-07T08:35:51;4.50;99.90
9984;DHT22;16737;50.932;6.780;2023-12-07T08:38:20;4.60;99.90
9984;DHT22;16737;50.932;6.780;2023-12-07T08:40:48;4.60;99.90
9984;DHT22;16737;50.932;6.780;2023-12-07T08:43:15;4.70;99.90
9984;DHT22;16737;50.932;6.780;2023-12-07T08:45:44;4.60;99.80
9984;DHT22;16737;50.932;6.780;2023-12-07T08:48:11;4.70;99.80
9984;DHT22;16737;50.932;6.780;2023-12-07T08:50:38;4.70;99.80
9984;DHT22;16737;50.932;6.780;2023-12-07T08:53:06;4.70;99.90
9984;DHT22;16737;50.932;6.780;2023-12-07T08:55:33;4.70;99.90
9984;DHT22;16737;50.932;6.780;2023-12-07T08:58:00;4.80;99.90
9984;DHT22;16737;50.932;6.780;2023-12-07T09:00:30;4.80;99.90
9984;DHT22;16737;50.932;6.780;2023-12-07T09:02:58;4.80;99.90
9984;DHT22;16737;50.932;6.780;2023-12-07T09:05:27;4.90;99.90
9984;DHT22;16737;50.932;6.780;2023-12-07T09:07:55;4.90;99.90
9984;DHT22;16737;50.932;6.780;2023-12-07T09:10:22;5.00;99.90
9984;DHT22;16737;50.932;6.780;2023-12-07T09:12:49;5.00;99.90
9984;DHT22;16737;50.932;6.780;2023-12-07T09:15:17;5.00;99.90
9984;DHT22;16737;50.932;6.780;2023-12-07T09:17:44;5.00;99.90
9984;DHT22;16737;50.932;6.780;2023-12-07T09:20:12;5.00;99.90
9984;DHT22;16737;50.932;6.780;2023-12-07T09:22:41;5.10;99.90
9984;DHT22;16737;50.932;6.780;2023-12-07T09:25:09;5.10;99.90
9984;DHT22;16737;50.932;6.780;2023-12-07T09:27:36;5.10;99.90
9984;DHT22;16737;50.932;6.780;2023-12-07T09:30:05;5.10;99.90
9984;DHT22;16737;50.932;6.780;2023-12-07T09:32:36;5.10;99.90
9984;DHT22;16737;50.932;6.780;2023-12-07T09:35:04;5.10;99.90
9984;DHT22;16737;50.932;6.780;2023-12-07T09:37:34;5.20;99.90
9984;DHT22;16737;50.932;6.780;2023-12-07T09:40:01;5.20;99.90
9984;DHT22;16737;50.932;6.780;2023-12-07T09:42:31;5.20;99.90
9984;DHT22;16737;50.932;6.780;2023-12-07T09:44:59;5.20;99.90
9984;DHT22;16737;50.932;6.780;2023-12-07T09:47:27;5.30;99.90
9984;DHT22;16737;50.932;6.780;2023-12-07T09:49:58;5.30;99.90
9984;DHT22;16737;50.932;6.780;2023-12-07T09:52:25;5.30;99.90
9984;DHT22;16737;50.932;6.780;2023-12-07T09:54:55;5.30;99.90
9984;DHT22;16737;50.932;6.780;2023-12-07T09:57:24;5.40;99.90
9984;DHT22;16737;50.932;6.780;2023-12-07T09:59:51;5.40;99.90
9984;DHT22;16737;50.932;6.780;2023-12-07T10:02:18;5.40;99.90
9984;DHT22;16737;50.932;6.780;2023-12-07T10:04:46;5.40;99.90
9984;DHT22;16737;50.932;6.780;2023-12-07T10:07:14;5.50;99.90
9984;DHT22;16737;50.932;6.780;2023-12-07T10:09:41;5.50;99.90
9984;DHT22;16737;50.932;6.780;2023-12-07T10:12:09;5.50;99.90
9984;DHT22;16737;50.932;6.780;2023-12-07T10:14:38;5.50;99.90
9984;DHT22;16737;50.932;6.780;2023-12-07T10:17:05;5.60;99.90
9984;DHT22;16737;50.932;6.780;2023-12-07T10:19:32;5.60;99.90
9984;DHT22;16737;50.932;6.780;2023-12-07T10:22:00;5.60;99.90
9984;DHT22;16737;50.932;6.780;2023-12-07T10:24:39;5.70;99.90
9984;DHT22;16737;50.932;6.780;2023-12-07T10:27:06;5.70;99.90
9984;DHT22;16737;50.932;6.780;2023-12-07T10:29:37;5.70;99.90
9984;DHT22;16737;50.932;6.780;2023-12-07T10:32:05;5.80;99.90
9984;DHT22;16737;50.932;6.780;2023-12-07T10:34:33;5.80;99.90
9984;DHT22;16737;50.932;6.780;2023-12-07T10:37:02;5.90;99.90
9984;DHT22;16737;50.932;6.780;2023-12-07T10:39:30;5.90;99.90
9984;DHT22;16737;50.932;6.780;2023-12-07T10:42:02;6.00;99.90
9984;DHT22;16737;50.932;6.780;2023-12-07T10:44:35;6.00;99.90
9984;DHT22;16737;50.932;6.780;2023-12-07T10:47:09;6.10;99.90
9984;DHT22;16737;50.932;6.780;2023-12-07T10:49:40;6.10;99.90
9984;DHT22;16737;50.932;6.780;2023-12-07T10:52:13;6.10;99.90
9984;DHT22;16737;50.932;6.780;2023-12-07T10:54:47;6.20;99.90
9984;DHT22;16737;50.932;6.780;2023-12-07T10:57:19;6.20;99.90
9984;DHT22;16737;50.932;6.780;2023-12-07T10:59:50;6.20;99.90
9984;DHT22;16737;50.932;6.780;2023-12-07T11:02:21;6.30;99.90
9984;DHT22;16737;50.932;6.780;2023-12-07T11:04:49;6.30;99.90
9984;DHT22;16737;50.932;6.780;2023-12-07T11:07:20;6.30;99.90
9984;DHT22;16737;50.932;6.780;2023-12-07T11:10:05;6.40;99.90
9984;DHT22;16737;50.932;6.780;2023-12-07T11:12:44;6.40;99.90
9984;DHT22;16737;50.932;6.780;2023-12-07T11:15:18;6.50;99.90
9984;DHT22;16737;50.932;6.780;2023-12-07T11:17:52;6.50;99.90
9984;DHT22;16737;50.932;6.780;2023-12-07T11:20:22;6.50;99.90
9984;DHT22;16737;50.932;6.780;2023-12-07T11:22:59;6.60;99.90
9984;DHT22;16737;50.932;6.780;2023-12-07T11:25:26;6.60;99.90
9984;DHT22;16737;50.932;6.780;2023-12-07T11:28:00;6.60;99.80
9984;DHT22;16737;50.932;6.780;2023-12-07T11:30:30;6.60;99.90
9984;DHT22;16737;50.932;6.780;2023-12-07T11:32:58;6.70;99.70
9984;DHT22;16737;50.932;6.780;2023-12-07T11:35:26;6.70;99.70
9984;DHT22;16737;50.932;6.780;2023-12-07T11:38:04;6.70;99.70
9984;DHT22;16737;50.932;6.780;2023-12-07T11:40:35;6.70;99.60
9984;DHT22;16737;50.932;6.780;2023-12-07T11:43:03;6.70;99.70
9984;DHT22;16737;50.932;6.780;2023-12-07T11:45:39;6.70;99.70
9984;DHT22;16737;50.932;6.780;2023-12-07T11:48:11;6.70;99.80
9984;DHT22;16737;50.932;6.780;2023-12-07T11:50:59;6.80;99.80
9984;DHT22;16737;50.932;6.780;2023-12-07T11:53:28;6.80;99.60
9984;DHT22;16737;50.932;6.780;2023-12-07T11:55:56;6.90;99.70
9984;DHT22;16737;50.932;6.780;2023-12-07T11:58:24;6.90;99.70
9984;DHT22;16737;50.932;6.780;2023-12-07T12:00:54;6.90;99.70
9984;DHT22;16737;50.932;6.780;2023-12-07T12:03:22;6.90;99.70
9984;DHT22;16737;50.932;6.780;2023-12-07T12:05:49;7.00;99.70
9984;DHT22;16737;50.932;6.780;2023-12-07T12:08:17;7.00;99.70
9984;DHT22;16737;50.932;6.780;2023-12-07T12:10:47;7.00;99.70
9984;DHT22;16737;50.932;6.780;2023-12-07T12:13:18;7.00;99.70
9984;DHT22;16737;50.932;6.780;2023-12-07T12:15:45;7.10;99.60
9984;DHT22;16737;50.932;6.780;2023-12-07T12:18:16;7.10;99.50
9984;DHT22;16737;50.932;6.780;2023-12-07T12:20:45;7.10;99.50
9984;DHT22;16737;50.932;6.780;2023-12-07T12:23:13;7.10;99.40
9984;DHT22;16737;50.932;6.780;2023-12-07T12:25:41;7.10;99.40
9984;DHT22;16737;50.932;6.780;2023-12-07T12:28:08;7.10;99.50
9984;DHT22;16737;50.932;6.780;2023-12-07T12:30:37;7.20;99.60
9984;DHT22;16737;50.932;6.780;2023-12-07T12:33:05;7.20;99.60
9984;DHT22;16737;50.932;6.780;2023-12-07T12:35:34;7.20;99.60
9984;DHT22;16737;50.932;6.780;2023-12-07T12:38:01;7.20;99.60
9984;DHT22;16737;50.932;6.780;2023-12-07T12:40:31;7.20;99.60
9984;DHT22;16737;50.932;6.780;2023-12-07T12:42:58;7.30;99.60
9984;DHT22;16737;50.932;6.780;2023-12-07T12:45:25;7.30;99.60
9984;DHT22;16737;50.932;6.780;2023-12-07T12:47:52;7.30;99.60
9984;DHT22;16737;50.932;6.780;2023-12-07T12:50:35;7.40;99.50
9984;DHT22;16737;50.932;6.780;2023-12-07T12:53:04;7.40;99.30
9984;DHT22;16737;50.932;6.780;2023-12-07T12:55:33;7.40;99.40
9984;DHT22;16737;50.932;6.780;2023-12-07T12:58:02;7.40;99.40
9984;DHT22;16737;50.932;6.780;2023-12-07T13:00:30;7.40;99.30
9984;DHT22;16737;50.932;6.780;2023-12-07T13:02:59;7.40;99.20
9984;DHT22;16737;50.932;6.780;2023-12-07T13:05:26;7.50;99.10
9984;DHT22;16737;50.932;6.780;2023-12-07T13:07:55;7.40;99.00
9984;DHT22;16737;50.932;6.780;2023-12-07T13:10:22;7.40;99.00
9984;DHT22;16737;50.932;6.780;2023-12-07T13:12:53;7.40;99.00
9984;DHT22;16737;50.932;6.780;2023-12-07T13:15:22;7.30;99.00
9984;DHT22;16737;50.932;6.780;2023-12-07T13:17:50;7.40;99.00
9984;DHT22;16737;50.932;6.780;2023-12-07T13:20:17;7.30;98.90
9984;DHT22;16737;50.932;6.780;2023-12-07T13:22:45;7.30;98.90
9984;DHT22;16737;50.932;6.780;2023-12-07T13:25:13;7.30;98.90
9984;DHT22;16737;50.932;6.780;2023-12-07T13:27:40;7.30;98.90
9984;DHT22;16737;50.932;6.780;2023-12-07T13:30:09;7.30;98.90
9984;DHT22;16737;50.932;6.780;2023-12-07T13:32:36;7.20;98.90
9984;DHT22;16737;50.932;6.780;2023-12-07T13:35:04;7.20;98.90
9984;DHT22;16737;50.932;6.780;2023-12-07T13:37:31;7.20;98.80
9984;DHT22;16737;50.932;6.780;2023-12-07T13:39:59;7.20;98.90
9984;DHT22;16737;50.932;6.780;2023-12-07T13:42:30;7.20;98.80
9984;DHT22;16737;50.932;6.780;2023-12-07T13:44:58;7.10;98.80
9984;DHT22;16737;50.932;6.780;2023-12-07T13:47:26;7.10;98.80
9984;DHT22;16737;50.932;6.780;2023-12-07T13:49:58;7.10;98.70
9984;DHT22;16737;50.932;6.780;2023-12-07T13:52:29;7.10;98.60
9984;DHT22;16737;50.932;6.780;2023-12-07T13:54:56;7.00;98.60
9984;DHT22;16737;50.932;6.780;2023-12-07T13:57:24;7.00;98.60
9984;DHT22;16737;50.932;6.780;2023-12-07T13:59:53;7.00;98.60
9984;DHT22;16737;50.932;6.780;2023-12-07T14:02:21;7.00;98.60
9984;DHT22;16737;50.932;6.780;2023-12-07T14:04:49;6.90;98.60
9984;DHT22;16737;50.932;6.780;2023-12-07T14:07:17;6.80;98.60
9984;DHT22;16737;50.932;6.780;2023-12-07T14:09:46;6.80;98.50
9984;DHT22;16737;50.932;6.780;2023-12-07T14:12:14;6.80;98.50
9984;DHT22;16737;50.932;6.780;2023-12-07T14:14:41;6.80;98.50
9984;DHT22;16737;50.932;6.780;2023-12-07T14:17:11;6.80;98.50
9984;DHT22;16737;50.932;6.780;2023-12-07T14:19:58;6.70;98.50
9984;DHT22;16737;50.932;6.780;2023-12-07T14:22:26;6.70;98.30
9984;DHT22;16737;50.932;6.780;2023-12-07T14:24:53;6.60;98.40
9984;DHT22;16737;50.932;6.780;2023-12-07T14:27:20;6.60;98.40
9984;DHT22;16737;50.932;6.780;2023-12-07T14:29:47;6.50;98.40
9984;DHT22;16737;50.932;6.780;2023-12-07T14:32:15;6.50;98.70
9984;DHT22;16737;50.932;6.780;2023-12-07T14:34:43;6.50;98.40
9984;DHT22;16737;50.932;6.780;2023-12-07T14:37:10;6.40;98.40
9984;DHT22;16737;50.932;6.780;2023-12-07T14:39:39;6.40;98.40
9984;DHT22;16737;50.932;6.780;2023-12-07T14:42:06;6.40;98.40
9984;DHT22;16737;50.932;6.780;2023-12-07T14:44:34;6.30;98.40
9984;DHT22;16737;50.932;6.780;2023-12-07T14:47:01;6.30;98.40
9984;DHT22;16737;50.932;6.780;2023-12-07T14:49:30;6.30;98.40
9984;DHT22;16737;50.932;6.780;2023-12-07T14:51:58;6.20;98.40
9984;DHT22;16737;50.932;6.780;2023-12-07T14:54:26;6.20;98.40
9984;DHT22;16737;50.932;6.780;2023-12-07T14:56:53;6.10;98.40
9984;DHT22;16737;50.932;6.780;2023-12-07T14:59:22;6.10;98.40
9984;DHT22;16737;50.932;6.780;2023-12-07T15:01:49;6.10;98.40
9984;DHT22;16737;50.932;6.780;2023-12-07T15:04:16;6.00;98.40
9984;DHT22;16737;50.932;6.780;2023-12-07T15:06:45;6.00;98.40
9984;DHT22;16737;50.932;6.780;2023-12-07T15:09:12;6.00;98.40
9984;DHT22;16737;50.932;6.780;2023-12-07T15:11:39;5.90;98.40
9984;DHT22;16737;50.932;6.780;2023-12-07T15:14:06;5.90;98.40
9984;DHT22;16737;50.932;6.780;2023-12-07T15:16:35;5.90;98.40
9984;DHT22;16737;50.932;6.780;2023-12-07T15:19:02;5.80;98.40
9984;DHT22;16737;50.932;6.780;2023-12-07T15:21:31;5.80;98.40
9984;DHT22;16737;50.932;6.780;2023-12-07T15:24:00;5.80;98.50
9984;DHT22;16737;50.932;6.780;2023-12-07T15:26:26;5.80;98.50
9984;DHT22;16737;50.932;6.780;2023-12-07T15:28:53;5.80;98.50
9984;DHT22;16737;50.932;6.780;2023-12-07T15:31:21;5.70;98.50
9984;DHT22;16737;50.932;6.780;2023-12-07T15:33:48;5.70;98.50
9984;DHT22;16737;50.932;6.780;2023-12-07T15:36:15;5.70;98.80
9984;DHT22;16737;50.932;6.780;2023-12-07T15:38:42;5.70;98.50
9984;DHT22;16737;50.932;6.780;2023-12-07T15:41:11;5.70;98.60
9984;DHT22;16737;50.932;6.780;2023-12-07T15:43:38;5.60;98.50
9984;DHT22;16737;50.932;6.780;2023-12-07T15:46:05;5.60;98.60
9984;DHT22;16737;50.932;6.780;2023-12-07T15:48:33;5.60;98.60
9984;DHT22;16737;50.932;6.780;2023-12-07T15:51:00;5.60;98.60
9984;DHT22;16737;50.932;6.780;2023-12-07T15:53:27;5.60;98.60
9984;DHT22;16737;50.932;6.780;2023-12-07T15:55:55;5.60;98.60
9984;DHT22;16737;50.932;6.780;2023-12-07T15:58:23;5.60;98.70
9984;DHT22;16737;50.932;6.780;2023-12-07T16:00:50;5.50;98.70
9984;DHT22;16737;50.932;6.780;2023-12-07T16:03:17;5.50;98.70
9984;DHT22;16737;50.932;6.780;2023-12-07T16:05:44;5.50;98.70
9984;DHT22;16737;50.932;6.780;2023-12-07T16:08:12;5.50;98.80